Time;durP1;ratioP1;P1;durP2;ratioP2;P2;SDS_P1;SDS_P2;PMS_P1;PMS_P2;Temp;Humidity;BMP_temperature;BMP_pressure;BME280_temperature;BME280_humidity;BME280_pressure;Samples;Min_cycle;Max_cycle;Signal;HPM_P1;HPM_P2
2022/04/12 00:02:08;;;;;;;21.50;11.60;;;22.60;50.90;;;;;;220505;1265;22912;-58
2022/04/12 00:07:15;;;;;;;;;;;22.50;50.40;;;;;;220794;1265;22506;-58
2022/04/12 00:12:20;;;;;;;21.30;12.00;;;22.50;50.60;;;;;;220592;1265;24214;-58
2022/04/12 00:22:48;;;;;;;20.10;12.30;;;22.40;51.10;;;;;;221132;1265;22574;-59
2022/04/12 00:27:57;;;;;;;22.50;12.80;;;22.30;50.80;;;;;;220779;1265;24285;-58
2022/04/12 00:33:01;;;;;;;21.70;12.10;;;22.30;50.90;;;;;;220620;1267;25419;-57
2022/04/12 00:38:24;;;;;;;22.90;12.10;;;22.30;51.10;;;;;;220626;1265;25241;-57
2022/04/12 00:43:31;;;;;;;23.20;12.80;;;22.20;50.80;;;;;;220872;1265;22548;-58
2022/04/12 00:48:35;;;;;;;21.10;11.30;;;22.20;50.80;;;;;;221098;1265;24281;-57
2022/04/12 00:53:38;;;;;;;20.10;11.70;;;22.50;50.30;;;;;;220548;1265;25356;-58
2022/04/12 00:58:46;;;;;;;22.50;13.30;;;22.90;49.70;;;;;;220542;1265;22616;-58
2022/04/12 01:03:50;;;;;;;22.50;11.60;;;23.20;48.90;;;;;;220784;1265;24372;-56
2022/04/12 01:08:54;;;;;;;22.20;12.30;;;23.30;48.40;;;;;;220894;1265;26607;-58
2022/04/12 01:13:57;;;;;;;19.90;11.50;;;23.50;48.80;;;;;;220744;1265;22554;-58
2022/04/12 01:19:01;;;;;;;23.40;11.90;;;23.50;48.10;;;;;;220580;1268;22755;-59
2022/04/12 01:24:06;;;;;;;20.60;12.30;;;23.60;47.60;;;;;;220790;1266;25865;-58
2022/04/12 01:29:10;;;;;;;20.00;11.60;;;23.60;48.00;;;;;;220635;1265;24193;-59
2022/04/12 01:34:13;;;;;;;20.00;11.00;;;23.60;47.50;;;;;;220468;1265;22861;-59
2022/04/12 01:39:17;;;;;;;19.90;11.10;;;23.70;47.40;;;;;;220455;1265;24942;-59
2022/04/12 01:44:20;;;;;;;22.40;11.90;;;23.60;47.30;;;;;;220768;1265;24423;-61
2022/04/12 01:49:24;;;;;;;19.50;10.80;;;23.70;47.40;;;;;;220880;1265;22562;-58
2022/04/12 01:54:28;;;;;;;23.20;11.60;;;23.60;47.40;;;;;;220500;1265;22620;-58
2022/04/12 01:59:32;;;;;;;21.40;11.70;;;23.60;47.60;;;;;;221001;1265;22802;-62
2022/04/12 02:04:36;;;;;;;19.50;11.30;;;23.60;47.50;;;;;;220966;1265;24409;-59
2022/04/12 02:09:40;;;;;;;21.50;11.90;;;23.60;47.50;;;;;;220764;1265;22539;-62
2022/04/12 02:14:44;;;;;;;21.80;11.40;;;23.60;47.80;;;;;;220343;1265;22612;-58
2022/04/12 02:19:48;;;;;;;19.90;10.60;;;23.60;47.50;;;;;;220689;1265;25891;-58
2022/04/12 02:24:52;;;;;;;19.40;11.40;;;23.70;47.80;;;;;;221687;1267;25911;-61
2022/04/12 02:29:56;;;;;;;21.70;10.90;;;23.70;47.30;;;;;;221002;1267;25554;-58
2022/04/12 02:35:00;;;;;;;19.00;10.70;;;23.70;47.20;;;;;;221057;1265;22639;-58
2022/04/12 02:40:11;;;;;;;20.20;10.60;;;23.70;47.30;;;;;;220886;1266;25593;-58
2022/04/12 02:45:20;;;;;;;17.30;10.90;;;23.60;47.80;;;;;;220620;1267;25183;-59
2022/04/12 02:50:24;;;;;;;20.50;11.40;;;23.50;47.80;;;;;;220674;1264;24230;-58
2022/04/12 02:55:27;;;;;;;18.30;10.80;;;23.30;48.30;;;;;;220957;1265;24249;-60
2022/04/12 03:00:31;;;;;;;18.60;11.70;;;23.20;48.20;;;;;;220407;1267;25332;-58
2022/04/12 03:05:35;;;;;;;19.20;11.80;;;23.20;48.80;;;;;;220714;1267;24265;-60
2022/04/12 03:10:38;;;;;;;17.60;10.20;;;23.00;48.80;;;;;;220223;1267;22721;-58
2022/04/12 03:15:42;;;;;;;19.70;10.90;;;23.00;48.60;;;;;;220732;1265;22761;-58
2022/04/12 03:20:46;;;;;;;18.00;12.00;;;23.00;48.80;;;;;;220927;1265;22572;-58
2022/04/12 03:25:53;;;;;;;20.00;11.90;;;22.90;48.80;;;;;;220582;1265;24427;-58
2022/04/12 03:30:56;;;;;;;19.60;11.00;;;22.90;48.90;;;;;;220362;1265;25300;-58
2022/04/12 03:36:00;;;;;;;16.80;10.40;;;22.90;48.70;;;;;;220565;1265;22583;-58
2022/04/12 03:41:04;;;;;;;22.80;11.50;;;22.90;49.10;;;;;;220264;1266;24354;-57
2022/04/12 03:46:08;;;;;;;18.10;11.30;;;22.80;48.70;;;;;;220644;1265;25118;-58
2022/04/12 03:51:13;;;;;;;19.80;11.90;;;22.70;48.80;;;;;;220530;1265;26479;-57
2022/04/12 03:56:17;;;;;;;19.30;11.40;;;22.60;48.90;;;;;;220953;1265;24415;-58
2022/04/12 04:01:20;;;;;;;16.80;10.80;;;22.60;49.00;;;;;;220404;1265;24193;-59
2022/04/12 04:06:25;;;;;;;18.20;11.40;;;22.50;49.00;;;;;;220798;1265;25127;-58
2022/04/12 04:11:28;;;;;;;18.20;10.90;;;22.50;49.20;;;;;;220880;1265;22719;-57
2022/04/12 04:16:32;;;;;;;18.70;10.20;;;22.40;49.30;;;;;;220463;1266;25455;-59
2022/04/12 04:21:37;;;;;;;18.50;10.90;;;22.30;49.00;;;;;;221226;1265;22872;-57
2022/04/12 04:26:42;;;;;;;18.40;11.10;;;22.30;49.60;;;;;;221081;1268;22623;-59
2022/04/12 04:31:47;;;;;;;17.80;10.80;;;22.20;49.60;;;;;;221058;1267;23916;-58
2022/04/12 04:36:51;;;;;;;18.80;10.50;;;22.30;49.80;;;;;;220684;1267;22558;-57
2022/04/12 04:41:55;;;;;;;18.20;10.70;;;22.70;48.60;;;;;;220879;1264;22534;-62
2022/04/12 04:46:59;;;;;;;16.00;9.10;;;23.00;47.70;;;;;;220686;1267;22704;-58
2022/04/12 04:52:03;;;;;;;17.90;9.80;;;23.20;47.30;;;;;;220705;1265;22737;-59
2022/04/12 04:57:07;;;;;;;15.80;9.50;;;23.40;47.50;;;;;;220999;1264;24388;-58
2022/04/12 05:02:10;;;;;;;17.30;10.40;;;23.50;46.80;;;;;;220898;1264;25410;-58
2022/04/12 05:07:24;;;;;;;16.80;9.40;;;23.60;46.60;;;;;;220628;1264;23881;-59
2022/04/12 05:12:29;;;;;;;16.60;9.90;;;23.60;47.00;;;;;;220504;1265;22624;-58
2022/04/12 05:17:32;;;;;;;17.10;10.40;;;23.70;46.40;;;;;;221006;1265;22676;-60
2022/04/12 05:22:36;;;;;;;16.30;9.80;;;23.60;46.50;;;;;;220618;1265;24368;-58
2022/04/12 05:27:41;;;;;;;17.30;10.20;;;23.70;46.40;;;;;;220370;1265;25101;-59
2022/04/12 05:32:48;;;;;;;17.90;9.70;;;23.70;46.40;;;;;;220604;1265;22724;-59
2022/04/12 05:37:53;;;;;;;16.60;10.40;;;23.70;46.40;;;;;;220520;1265;24406;-59
2022/04/12 05:43:16;;;;;;;15.20;9.80;;;23.70;46.50;;;;;;220329;1266;25772;-59
2022/04/12 05:48:22;;;;;;;19.10;9.80;;;23.70;46.80;;;;;;220459;1265;22606;-58
2022/04/12 05:53:27;;;;;;;16.70;9.90;;;23.70;46.60;;;;;;220574;1265;22608;-59
2022/04/12 05:58:37;;;;;;;16.70;9.90;;;23.60;46.90;;;;;;220746;1267;22638;-59
2022/04/12 06:03:40;;;;;;;17.00;10.00;;;23.60;46.90;;;;;;220558;1265;22545;-58
2022/04/12 06:08:44;;;;;;;18.90;10.00;;;23.50;46.90;;;;;;220526;1265;24238;-58
2022/04/12 06:13:50;;;;;;;16.50;9.60;;;23.50;47.10;;;;;;220850;1267;24307;-59
2022/04/12 06:18:55;;;;;;;19.00;9.30;;;23.50;47.20;;;;;;220569;1265;22558;-59
2022/04/12 06:24:00;;;;;;;18.10;10.10;;;23.50;47.10;;;;;;221062;1264;24822;-59
2022/04/12 06:29:04;;;;;;;14.90;9.20;;;23.30;47.30;;;;;;220809;1265;24501;-59
2022/04/12 06:34:11;;;;;;;15.50;8.80;;;23.20;47.90;;;;;;220860;1264;24124;-58
2022/04/12 06:39:14;;;;;;;16.50;9.90;;;23.20;48.00;;;;;;220724;1266;24340;-59
2022/04/12 06:44:18;;;;;;;18.20;9.40;;;23.00;48.60;;;;;;220419;1266;369856;-59
2022/04/12 06:49:23;;;;;;;22.30;10.50;;;23.00;49.10;;;;;;220491;1266;22624;-59
2022/04/12 06:54:27;;;;;;;36.10;11.10;;;22.90;49.50;;;;;;220940;1265;25360;-58
2022/04/12 06:59:35;;;;;;;20.00;9.90;;;22.80;53.50;;;;;;220601;1265;22565;-60
2022/04/12 07:04:45;;;;;;;22.90;10.20;;;22.80;52.60;;;;;;220896;1265;24381;-60
2022/04/12 07:09:49;;;;;;;24.90;10.20;;;22.80;52.60;;;;;;220337;1265;22612;-59
2022/04/12 07:14:54;;;;;;;20.60;9.90;;;22.80;52.70;;;;;;220633;1265;22598;-58
2022/04/12 07:20:02;;;;;;;30.50;10.80;;;22.80;52.70;;;;;;221072;1265;24405;-60
2022/04/12 07:25:07;;;;;;;26.60;9.90;;;22.80;52.60;;;;;;220899;1267;24413;-58
2022/04/12 07:30:13;;;;;;;24.30;9.80;;;22.70;52.50;;;;;;220771;1264;22708;-58
2022/04/12 07:35:47;;;;;;;23.30;10.30;;;22.70;52.60;;;;;;220456;1265;24200;-58
2022/04/12 07:40:51;;;;;;;22.30;9.90;;;22.60;52.20;;;;;;220541;1266;22694;-58
2022/04/12 07:45:56;;;;;;;20.00;9.20;;;22.60;52.10;;;;;;220274;1266;25245;-56
2022/04/12 07:51:21;;;;;;;18.30;9.70;;;22.60;51.80;;;;;;219978;1266;23096;-58
2022/04/12 07:56:26;;;;;;;15.30;8.90;;;22.60;51.80;;;;;;220243;1266;22616;-58
2022/04/12 08:01:30;;;;;;;25.20;11.50;;;22.60;51.50;;;;;;220726;1266;22828;-58
2022/04/12 08:06:33;;;;;;;22.10;8.70;;;22.60;51.30;;;;;;220258;1266;22657;-58
2022/04/12 08:11:38;;;;;;;19.30;9.10;;;22.60;51.20;;;;;;220270;1266;25242;-58
2022/04/12 08:16:44;;;;;;;17.20;8.40;;;22.60;51.10;;;;;;220586;1265;25236;-57
2022/04/12 08:21:48;;;;;;;18.40;8.50;;;22.50;50.80;;;;;;220710;1265;22833;-57
2022/04/12 08:26:52;;;;;;;15.20;8.40;;;22.60;50.60;;;;;;220186;1266;25379;-56
2022/04/12 08:31:56;;;;;;;23.50;8.10;;;22.60;50.60;;;;;;220457;1266;22558;-59
2022/04/12 08:37:05;;;;;;;17.20;8.00;;;22.60;50.60;;;;;;220642;1266;25231;-59
2022/04/12 08:42:08;;;;;;;22.00;8.70;;;22.60;50.40;;;;;;219982;1266;22574;-58
2022/04/12 08:47:17;;;;;;;15.10;7.70;;;22.60;49.80;;;;;;220489;1267;22547;-57
2022/04/12 08:52:24;;;;;;;14.60;7.30;;;22.60;49.70;;;;;;220517;1266;25417;-59
2022/04/12 08:57:28;;;;;;;16.00;7.20;;;22.60;49.90;;;;;;220624;1266;22619;-59
2022/04/12 09:02:33;;;;;;;16.80;7.40;;;22.60;49.50;;;;;;220811;1265;24251;-58
2022/04/12 09:07:51;;;;;;;17.30;7.00;;;22.60;49.50;;;;;;228098;1266;23034;-59
2022/04/12 09:13:12;;;;;;;16.60;7.20;;;22.60;49.90;;;;;;227927;1269;22489;-60
2022/04/12 09:18:38;;;;;;;11.30;6.70;;;22.80;49.20;;;;;;228126;1266;22331;-58
2022/04/12 09:23:54;;;;;;;19.70;7.50;;;22.80;49.00;;;;;;228056;1266;23082;-59
2022/04/12 09:29:02;;;;;;;12.70;6.50;;;22.80;48.80;;;;;;228120;1266;23268;-59
2022/04/12 09:34:06;;;;;;;12.40;7.30;;;22.90;48.70;;;;;;228003;1265;23202;-58
2022/04/12 09:39:15;;;;;;;15.40;7.50;;;22.90;48.40;;;;;;228038;1265;22690;-59
2022/04/12 09:44:23;;;;;;;15.00;7.10;;;23.00;48.30;;;;;;222698;1267;22619;-58
2022/04/12 09:49:42;;;;;;;15.40;6.40;;;23.00;48.20;;;;;;221731;1266;24417;-59
2022/04/12 09:54:46;;;;;;;23.10;6.70;;;22.90;48.20;;;;;;220499;1266;25546;-58
2022/04/12 09:59:55;;;;;;;13.60;6.50;;;23.00;48.40;;;;;;220124;1266;24232;-60
2022/04/12 10:04:59;;;;;;;15.20;6.20;;;22.90;48.10;;;;;;220280;1266;22920;-58
2022/04/12 10:10:09;;;;;;;20.40;5.90;;;22.90;48.50;;;;;;220232;1266;22596;-58
2022/04/12 10:15:13;;;;;;;12.60;5.10;;;22.80;41.80;;;;;;220315;1265;22617;-58
2022/04/12 10:20:18;;;;;;;14.80;5.40;;;22.50;41.90;;;;;;222860;1264;26640;-58
2022/04/12 10:25:24;;;;;;;19.60;5.50;;;22.80;43.10;;;;;;220805;1264;22685;-48
2022/04/12 10:30:29;;;;;;;18.90;5.60;;;23.10;43.20;;;;;;220751;1265;25209;-49
2022/04/12 10:35:45;;;;;;;18.90;5.40;;;23.40;43.60;;;;;;220903;1265;22634;-47
2022/04/12 10:40:51;;;;;;;22.90;5.90;;;23.80;43.60;;;;;;220682;1264;24199;-48
2022/04/12 10:45:56;;;;;;;10.20;5.00;;;23.90;43.80;;;;;;220450;1267;23151;-49
2022/04/12 10:51:03;;;;;;;13.20;5.10;;;24.20;43.20;;;;;;221093;1267;22697;-54
2022/04/12 10:56:11;;;;;;;11.50;4.40;;;24.30;43.10;;;;;;220567;1265;22587;-48
2022/04/12 11:01:35;;;;;;;10.30;4.50;;;24.50;43.00;;;;;;220522;1266;24249;-51
2022/04/12 11:06:39;;;;;;;29.00;6.30;;;24.50;43.50;;;;;;220597;1266;22684;-49
2022/04/12 11:11:48;;;;;;;10.50;4.50;;;24.50;43.20;;;;;;220858;1266;22835;-55
2022/04/12 11:16:59;;;;;;;19.90;4.30;;;24.50;43.50;;;;;;220868;1267;24432;-49
2022/04/12 11:22:04;;;;;;;8.00;3.70;;;24.50;43.60;;;;;;220800;1267;23451;-49
2022/04/12 11:27:10;;;;;;;11.70;3.90;;;24.40;43.80;;;;;;220895;1266;22654;-48
2022/04/12 11:32:15;;;;;;;10.00;3.70;;;24.30;43.90;;;;;;220653;1267;22529;-47
2022/04/12 11:37:19;;;;;;;8.50;3.70;;;24.30;44.00;;;;;;220358;1266;22532;-49
2022/04/12 11:42:29;;;;;;;8.00;3.20;;;24.30;44.20;;;;;;220412;1266;26618;-52
2022/04/12 11:47:38;;;;;;;11.20;3.60;;;24.20;43.80;;;;;;220680;1266;25722;-50
2022/04/12 11:52:45;;;;;;;7.60;3.90;;;24.20;44.40;;;;;;220576;1266;22661;-51
2022/04/12 11:57:49;;;;;;;7.40;3.70;;;24.20;44.10;;;;;;220601;1267;23875;-48
2022/04/12 12:02:53;;;;;;;10.30;3.70;;;24.20;44.10;;;;;;220706;1267;24302;-51
2022/04/12 12:08:04;;;;;;;10.70;3.70;;;24.10;44.20;;;;;;220483;1266;22559;-52
2022/04/12 12:13:08;;;;;;;8.60;3.30;;;24.10;44.10;;;;;;220639;1267;22611;-50
2022/04/12 12:18:19;;;;;;;10.80;4.20;;;24.10;44.20;;;;;;220728;1265;24426;-48
2022/04/12 12:23:26;;;;;;;7.60;3.10;;;24.10;44.50;;;;;;220738;1267;24274;-51
2022/04/12 12:28:30;;;;;;;6.90;3.20;;;24.10;44.30;;;;;;220775;1267;24194;-48
2022/04/12 12:33:38;;;;;;;10.30;3.40;;;24.10;44.30;;;;;;221013;1266;22601;-58
2022/04/12 12:38:44;;;;;;;10.70;3.20;;;24.10;44.00;;;;;;220752;1265;22595;-61
2022/04/12 12:43:52;;;;;;;12.80;3.50;;;24.10;44.10;;;;;;220684;1265;22564;-58
2022/04/12 12:49:16;;;;;;;9.80;3.80;;;24.10;44.10;;;;;;220479;1265;24219;-56
2022/04/12 12:54:22;;;;;;;11.30;3.80;;;24.10;44.00;;;;;;220991;1267;26220;-58
2022/04/12 12:59:30;;;;;;;9.20;3.60;;;24.10;44.40;;;;;;220916;1267;24423;-57
2022/04/12 13:04:36;;;;;;;8.80;3.60;;;24.10;43.50;;;;;;220948;1266;24706;-57
2022/04/12 13:09:43;;;;;;;13.10;3.60;;;24.10;43.60;;;;;;220963;1266;22707;-56
2022/04/12 13:14:47;;;;;;;8.00;3.10;;;24.10;43.90;;;;;;220635;1265;24217;-56
2022/04/12 13:19:57;;;;;;;9.00;3.60;;;24.10;43.90;;;;;;220923;1264;25337;-57
2022/04/12 13:25:05;;;;;;;10.10;3.20;;;24.10;43.90;;;;;;220563;1265;22686;-59
2022/04/12 13:30:10;;;;;;;12.20;3.40;;;24.10;43.80;;;;;;221047;1267;22544;-58
2022/04/12 13:35:17;;;;;;;10.10;3.70;;;24.10;43.80;;;;;;220316;1267;24217;-56
2022/04/12 13:40:24;;;;;;;12.20;3.50;;;24.10;43.80;;;;;;220576;1265;24266;-58
2022/04/12 13:45:27;;;;;;;6.40;2.90;;;24.10;43.90;;;;;;220352;1266;22723;-58
2022/04/12 13:50:31;;;;;;;8.20;3.60;;;24.10;43.90;;;;;;220139;1265;24261;-55
2022/04/12 13:55:36;;;;;;;8.50;3.30;;;24.00;44.00;;;;;;220815;1267;24406;-59
2022/04/12 14:00:40;;;;;;;12.10;3.80;;;24.00;44.10;;;;;;220719;1265;22711;-56
2022/04/12 14:05:46;;;;;;;12.30;3.30;;;24.00;44.30;;;;;;220746;1265;24240;-55
2022/04/12 14:10:56;;;;;;;7.20;3.10;;;24.00;45.50;;;;;;220602;1265;23164;-59
2022/04/12 14:16:34;;;;;;;;;;;24.00;44.60;;;;;;220873;1267;24315;-52
2022/04/12 14:21:46;;;;;;;14.20;3.90;;;24.00;44.60;;;;;;221022;1265;22595;-49
2022/04/12 14:27:01;;;;;;;7.40;3.20;;;23.90;45.20;;;;;;220479;1265;26417;-49
2022/04/12 14:32:06;;;;;;;14.90;3.50;;;24.00;44.80;;;;;;220830;1269;25470;-52
2022/04/12 14:37:10;;;;;;;12.20;4.00;;;23.90;44.60;;;;;;220857;1267;25598;-49
2022/04/12 14:42:19;;;;;;;16.90;3.40;;;23.90;44.30;;;;;;220695;1269;25405;-50
2022/04/12 14:47:24;;;;;;;8.30;3.10;;;23.80;45.50;;;;;;220940;1269;25523;-53
2022/04/12 14:52:33;;;;;;;9.30;3.20;;;23.80;45.20;;;;;;220300;1267;25778;-54
2022/04/12 14:57:52;;;;;;;;;;;23.80;45.00;;;;;;220604;1265;26473;-48
2022/04/12 15:03:38;;;;;;;;;;;;;;;;;;;;;
2022/04/12 15:08:59;;;;;;;8.50;3.40;;;23.80;45.00;;;;;;220573;1265;26779;-48
2022/04/12 15:14:19;;;;;;;10.50;3.00;;;23.80;44.80;;;;;;220753;1268;22544;-53
2022/04/12 15:19:27;;;;;;;7.90;3.00;;;23.70;44.80;;;;;;220457;1265;22815;-50
2022/04/12 15:25:07;;;;;;;8.00;2.80;;;23.80;44.80;;;;;;220279;1267;22547;-49
2022/04/12 15:30:18;;;;;;;5.90;2.60;;;23.70;44.80;;;;;;220849;1268;22618;-50
2022/04/12 15:35:48;;;;;;;6.60;2.70;;;23.70;44.70;;;;;;220468;1269;23123;-51
2022/04/12 15:41:12;;;;;;;10.90;2.80;;;23.70;45.10;;;;;;220764;1269;24292;-50
2022/04/12 15:46:47;;;;;;;9.40;3.10;;;23.60;44.70;;;;;;220612;1266;24394;-52
2022/04/12 15:52:37;;;;;;;6.70;2.90;;;23.70;44.50;;;;;;220505;1267;22634;-51
2022/04/12 15:58:23;;;;;;;10.00;3.00;;;23.70;44.40;;;;;;220590;1265;24286;-50
2022/04/12 16:04:00;;;;;;;6.50;2.70;;;23.70;44.70;;;;;;220405;1265;22549;-49
2022/04/12 16:10:12;;;;;;;8.80;3.20;;;23.60;45.90;;;;;;213554;1307;542818;-49
2022/04/12 16:16:16;;;;;;;4.90;2.70;;;23.60;47.10;;;;;;218317;1283;22726;-54
2022/04/12 16:22:04;;;;;;;5.60;2.50;;;23.60;47.80;;;;;;216503;1281;3111674;-49
2022/04/12 16:27:35;;;;;;;6.40;2.70;;;23.70;47.90;;;;;;218647;1280;22606;-49
2022/04/12 16:33:04;;;;;;;6.10;2.70;;;23.60;48.50;;;;;;218425;1281;22580;-53
2022/04/12 16:38:39;;;;;;;11.90;4.00;;;23.70;48.60;;;;;;218573;1281;25598;-52
2022/04/12 16:44:01;;;;;;;12.40;4.30;;;23.70;47.30;;;;;;218744;1280;24332;-49
2022/04/12 16:49:23;;;;;;;19.40;7.90;;;23.70;46.90;;;;;;218823;1281;25328;-51
2022/04/12 16:55:00;;;;;;;21.00;8.70;;;23.60;46.60;;;;;;218770;1281;22608;-53
2022/04/12 17:00:40;;;;;;;19.10;7.30;;;23.70;47.70;;;;;;218627;1279;24400;-50
2022/04/12 17:12:30;;;;;;;13.20;6.60;;;23.90;46.90;;;;;;218852;1281;22558;-56
2022/04/12 17:18:52;;;;;;;;;;;;;;;;;;;;;
2022/04/12 17:24:23;;;;;;;14.00;6.50;;;23.90;46.90;;;;;;220007;1274;24075;-50
2022/04/12 17:30:21;;;;;;;13.20;6.10;;;23.80;47.10;;;;;;219666;1272;25342;-53
2022/04/12 17:36:11;;;;;;;13.70;6.20;;;23.80;47.40;;;;;;219430;1275;25325;-53
2022/04/12 17:42:09;;;;;;;;;;;;;;;;;;;;;
2022/04/12 17:48:00;;;;;;;14.50;6.30;;;23.70;46.80;;;;;;219562;1274;24060;-52
2022/04/12 17:53:38;;;;;;;14.00;6.40;;;23.70;47.20;;;;;;219434;1272;24189;-54
2022/04/12 17:59:25;;;;;;;17.30;5.80;;;23.70;47.30;;;;;;219665;1274;24874;-57
2022/04/12 18:05:09;;;;;;;16.50;5.60;;;23.70;47.10;;;;;;219798;1274;26754;-53
2022/04/12 18:10:35;;;;;;;14.00;5.20;;;23.70;46.60;;;;;;219916;1274;24340;-58
2022/04/12 18:16:09;;;;;;;14.40;6.30;;;23.60;46.70;;;;;;219967;1274;24262;-59
2022/04/12 18:21:24;;;;;;;15.70;6.10;;;23.60;46.60;;;;;;219897;1274;24256;-60
2022/04/12 18:26:54;;;;;;;19.70;6.80;;;23.60;46.20;;;;;;219931;1274;24434;-52
2022/04/12 18:32:13;;;;;;;18.60;6.70;;;23.50;46.40;;;;;;219901;1274;24138;-54
2022/04/12 18:37:46;;;;;;;20.10;7.30;;;23.50;46.70;;;;;;220024;1274;22592;-53
2022/04/12 18:43:18;;;;;;;21.90;7.00;;;23.50;46.00;;;;;;219528;1274;24142;-67
2022/04/12 18:48:48;;;;;;;13.90;6.60;;;23.50;46.60;;;;;;219745;1274;24275;-61
2022/04/12 18:54:07;;;;;;;17.50;6.80;;;23.50;46.80;;;;;;219885;1274;25310;-61
2022/04/12 18:59:13;;;;;;;20.30;7.10;;;23.40;46.70;;;;;;219867;1275;22657;-62
2022/04/12 19:04:19;;;;;;;16.90;6.30;;;23.50;47.20;;;;;;219526;1273;25708;-61
2022/04/12 19:09:33;;;;;;;14.50;6.90;;;23.50;47.70;;;;;;219653;1274;25310;-62
2022/04/12 19:14:38;;;;;;;18.20;7.10;;;23.40;47.50;;;;;;219419;1274;22601;-63
2022/04/12 19:20:07;;;;;;;21.00;7.50;;;23.30;47.00;;;;;;219864;1274;24236;-63
2022/04/12 19:25:36;;;;;;;21.40;6.40;;;23.30;48.50;;;;;;219937;1274;24336;-62
2022/04/12 19:31:05;;;;;;;21.10;6.90;;;23.20;49.10;;;;;;219861;1274;25282;-62
2022/04/12 19:36:24;;;;;;;26.60;8.20;;;23.30;49.80;;;;;;219821;1273;25045;-59
2022/04/12 19:41:29;;;;;;;22.50;6.40;;;23.40;51.60;;;;;;219796;1274;22693;-58
2022/04/12 19:47:13;;;;;;;33.70;7.40;;;23.30;50.60;;;;;;220078;1274;22809;-58
2022/04/12 19:52:48;;;;;;;28.80;6.60;;;23.20;49.70;;;;;;219870;1274;25502;-62
2022/04/12 19:58:10;;;;;;;24.30;6.50;;;23.20;49.40;;;;;;220090;1274;25246;-59
2022/04/12 20:03:22;;;;;;;19.20;6.80;;;23.10;49.30;;;;;;219888;1274;24415;-61
2022/04/12 20:08:31;;;;;;;17.90;6.80;;;23.10;49.20;;;;;;219547;1273;24261;-64
2022/04/12 20:13:36;;;;;;;17.60;5.70;;;23.10;49.00;;;;;;219771;1274;22534;-64
2022/04/12 20:18:40;;;;;;;17.00;6.80;;;23.00;48.70;;;;;;219821;1274;25250;-61
2022/04/12 20:23:51;;;;;;;12.80;5.80;;;23.00;48.60;;;;;;219709;1274;22560;-62
2022/04/12 20:28:56;;;;;;;15.30;6.20;;;22.90;48.70;;;;;;219970;1274;22616;-61
2022/04/12 20:34:00;;;;;;;12.50;5.60;;;22.90;48.40;;;;;;219691;1273;22755;-59
2022/04/12 20:39:04;;;;;;;14.90;6.40;;;22.90;48.40;;;;;;219614;1274;22887;-60
2022/04/12 20:50:05;;;;;;;24.00;7.50;;;22.90;48.40;;;;;;219621;1274;24369;-61
2022/04/12 20:55:10;;;;;;;19.20;5.50;;;22.90;51.20;;;;;;219513;1271;24275;-61
2022/04/12 21:00:15;;;;;;;13.00;5.50;;;22.90;51.10;;;;;;219444;1271;22564;-64
2022/04/12 21:05:19;;;;;;;14.30;6.30;;;22.90;50.90;;;;;;219692;1271;24432;-63
2022/04/12 21:10:24;;;;;;;15.60;5.30;;;22.90;51.10;;;;;;219603;1271;22732;-63
2022/04/12 21:15:28;;;;;;;15.80;6.00;;;23.00;51.00;;;;;;219809;1271;24309;-61
2022/04/12 21:20:33;;;;;;;11.00;5.30;;;23.00;51.00;;;;;;219785;1271;25328;-61
2022/04/12 21:25:37;;;;;;;10.20;5.40;;;22.90;50.90;;;;;;219690;1271;22587;-63
2022/04/12 21:30:49;;;;;;;13.60;5.70;;;22.90;50.90;;;;;;219774;1271;22851;-59
2022/04/12 21:35:58;;;;;;;14.90;5.00;;;22.90;50.80;;;;;;219753;1271;22553;-62
2022/04/12 21:41:02;;;;;;;12.00;5.00;;;22.90;50.80;;;;;;219737;1271;25468;-64
2022/04/12 21:46:13;;;;;;;;;;;22.90;50.80;;;;;;219830;1271;22639;-60
2022/04/12 21:51:16;;;;;;;11.90;4.70;;;22.80;51.20;;;;;;219981;1271;23193;-62
2022/04/12 21:56:20;;;;;;;11.90;5.80;;;22.70;50.90;;;;;;219711;1271;24370;-61
2022/04/12 22:01:24;;;;;;;9.90;5.00;;;22.70;50.90;;;;;;219935;1271;25352;-60
2022/04/12 22:06:28;;;;;;;9.70;5.10;;;22.70;50.80;;;;;;219634;1271;24402;-61
2022/04/12 22:11:32;;;;;;;12.70;5.00;;;22.70;51.30;;;;;;219621;1271;24325;-63
2022/04/12 22:16:37;;;;;;;8.90;5.00;;;22.70;51.20;;;;;;219648;1271;22622;-61
2022/04/12 22:21:41;;;;;;;12.30;5.50;;;22.70;51.20;;;;;;219578;1271;22672;-58
2022/04/12 22:26:46;;;;;;;10.20;4.80;;;22.60;51.10;;;;;;219812;1273;25413;-58
2022/04/12 22:31:50;;;;;;;9.70;5.30;;;22.60;51.00;;;;;;219886;1271;23336;-59
2022/04/12 22:36:53;;;;;;;13.50;5.30;;;22.60;51.00;;;;;;219641;1271;24524;-60
2022/04/12 22:41:59;;;;;;;11.10;4.90;;;22.60;51.00;;;;;;220083;1271;25455;-60
2022/04/12 22:47:03;;;;;;;12.90;5.40;;;22.60;50.70;;;;;;219720;1271;22600;-59
2022/04/12 22:52:07;;;;;;;12.00;4.90;;;22.60;51.10;;;;;;219562;1271;25373;-58
2022/04/12 22:57:10;;;;;;;7.70;4.40;;;22.50;51.00;;;;;;219560;1271;22535;-61
2022/04/12 23:02:15;;;;;;;10.70;5.10;;;22.50;51.00;;;;;;219892;1271;24278;-62
2022/04/12 23:07:22;;;;;;;9.40;4.60;;;22.50;50.90;;;;;;219831;1271;24218;-63
2022/04/12 23:12:27;;;;;;;10.30;4.70;;;22.40;51.00;;;;;;219796;1271;22581;-61
2022/04/12 23:17:31;;;;;;;11.20;5.90;;;22.40;51.10;;;;;;219928;1271;22521;-59
2022/04/12 23:22:35;;;;;;;10.20;5.10;;;22.40;50.90;;;;;;220036;1271;24312;-59
2022/04/12 23:27:39;;;;;;;11.30;5.30;;;22.40;51.00;;;;;;219896;1271;22557;-59
2022/04/12 23:32:42;;;;;;;11.40;5.80;;;22.40;51.00;;;;;;219738;1271;24403;-60
2022/04/12 23:37:47;;;;;;;9.70;5.30;;;22.30;51.20;;;;;;219903;1271;22774;-59
2022/04/12 23:42:50;;;;;;;9.80;5.70;;;22.40;50.70;;;;;;219896;1272;25475;-60
2022/04/12 23:47:54;;;;;;;8.50;4.90;;;22.50;50.60;;;;;;220040;1271;26458;-58
2022/04/12 23:52:58;;;;;;;7.50;4.50;;;22.90;49.70;;;;;;219847;1271;22569;-60
2022/04/12 23:58:03;;;;;;;9.40;4.80;;;23.20;49.00;;;;;;219971;1271;24266;-61
